createdAt,value
2023-03-19T00:04:47.052Z,2.77
2023-03-19T00:09:50.416Z,3.97
2023-03-19T00:14:54.864Z,3.03
2023-03-19T00:19:57.962Z,2.37
2023-03-19T00:25:01.217Z,3.90
2023-03-19T00:30:06.383Z,4.00
2023-03-19T00:35:10.663Z,3.23
2023-03-19T00:40:15.869Z,4.00
2023-03-19T00:45:20.339Z,2.93
2023-03-19T00:50:23.268Z,3.70
2023-03-19T00:55:27.405Z,3.87
2023-03-19T01:10:39.453Z,3.47
2023-03-19T01:15:44.827Z,4.40
2023-03-19T01:20:54.033Z,5.30
2023-03-19T01:25:57.477Z,3.90
2023-03-19T01:31:07.797Z,3.90
2023-03-19T01:36:38.271Z,5.53
2023-03-19T01:41:43.269Z,5.27
2023-03-19T01:47:11.790Z,5.70
2023-03-19T01:52:36.523Z,5.70
2023-03-19T01:57:55.159Z,4.20
2023-03-19T02:03:11.861Z,4.23
2023-03-19T02:08:26.386Z,5.17
2023-03-19T02:13:29.912Z,4.53
2023-03-19T02:18:34.663Z,5.83
2023-03-19T02:23:46.638Z,4.13
2023-03-19T02:28:57.311Z,4.83
2023-03-19T02:34:08.461Z,4.87
2023-03-19T02:39:20.833Z,4.83
2023-03-19T02:44:26.485Z,5.77
2023-03-19T02:49:29.649Z,5.57
2023-03-19T02:54:32.850Z,5.40
2023-03-19T02:59:37.412Z,5.50
2023-03-19T03:04:40.622Z,6.30
2023-03-19T03:09:43.721Z,6.23
2023-03-19T03:14:50.444Z,6.83
2023-03-19T03:19:54.591Z,6.73
2023-03-19T03:24:57.750Z,6.33
2023-03-19T03:30:02.255Z,6.50
2023-03-19T03:35:06.326Z,6.03
2023-03-19T03:40:11.385Z,7.60
2023-03-19T03:45:15.995Z,6.33
2023-03-19T03:50:21.140Z,7.43
2023-03-19T03:55:28.282Z,7.80
2023-03-19T04:00:33.485Z,8.13
2023-03-19T04:05:37.809Z,7.20
2023-03-19T04:10:42.479Z,7.80
2023-03-19T04:15:46.987Z,7.50
2023-03-19T04:20:51.583Z,6.93
2023-03-19T04:26:00.042Z,8.20
2023-03-19T04:31:07.208Z,7.73
2023-03-19T04:36:13.526Z,7.67
2023-03-19T04:41:17.526Z,6.20
2023-03-19T04:46:35.470Z,6.27
2023-03-19T04:51:38.732Z,6.37
2023-03-19T04:56:43.225Z,8.77
2023-03-19T05:01:47.925Z,6.37
2023-03-19T05:06:57.616Z,8.00
2023-03-19T05:12:01.041Z,6.80
2023-03-19T05:17:11.296Z,7.33
2023-03-19T05:22:29.987Z,8.30
2023-03-19T05:27:33.872Z,7.80
2023-03-19T05:32:47.490Z,8.57
2023-03-19T05:38:08.026Z,9.57
2023-03-19T05:43:12.583Z,11.80
2023-03-19T05:48:17.781Z,10.80
2023-03-19T05:53:22.807Z,9.93
2023-03-19T05:58:45.140Z,10.43
2023-03-19T06:03:53.647Z,11.77
2023-03-19T06:08:57.065Z,9.77
2023-03-19T06:14:10.908Z,10.97
2023-03-19T06:19:18.724Z,10.90
2023-03-19T06:24:21.947Z,10.83
2023-03-19T06:29:25.528Z,10.93
2023-03-19T06:34:36.085Z,9.10
2023-03-19T06:39:39.540Z,9.97
2023-03-19T06:44:42.761Z,9.70
2023-03-19T06:49:47.131Z,11.27
2023-03-19T06:54:50.688Z,13.80
2023-03-19T06:59:53.721Z,11.27
2023-03-19T07:04:58.193Z,12.73
2023-03-19T07:10:02.082Z,17.13
2023-03-19T07:15:06.702Z,18.70
2023-03-19T07:20:12.973Z,19.63
2023-03-19T07:25:16.234Z,18.17
2023-03-19T07:30:20.054Z,17.83
2023-03-19T07:35:24.638Z,20.53
2023-03-19T07:40:28.228Z,18.70
2023-03-19T07:45:31.304Z,22.43
2023-03-19T07:50:36.512Z,21.33
2023-03-19T07:55:39.578Z,20.43
2023-03-19T08:00:43.057Z,18.70
2023-03-19T08:05:50.506Z,17.27
2023-03-19T08:10:55.245Z,21.77
2023-03-19T08:15:58.325Z,17.93
2023-03-19T08:21:02.773Z,14.77
2023-03-19T08:26:06.540Z,14.30
2023-03-19T08:31:10.582Z,17.47
2023-03-19T08:36:15.584Z,16.90
2023-03-19T08:41:19.233Z,18.67
2023-03-19T08:46:22.875Z,22.30
2023-03-19T08:51:29.359Z,19.97
2023-03-19T08:56:32.503Z,19.97
2023-03-19T09:01:35.884Z,18.43
2023-03-19T09:06:41.085Z,26.00
2023-03-19T09:11:44.294Z,20.47
2023-03-19T09:16:47.870Z,20.13
2023-03-19T09:21:56.159Z,25.27
2023-03-19T09:27:01.661Z,25.40
2023-03-19T09:32:05.972Z,20.90
2023-03-19T09:37:11.874Z,21.53
2023-03-19T09:42:32.817Z,21.93
2023-03-19T09:47:39.646Z,18.90
2023-03-19T09:52:47.155Z,20.70
2023-03-19T09:57:51.460Z,23.83
2023-03-19T10:03:03.919Z,24.40
2023-03-19T10:08:40.957Z,22.10
2023-03-19T10:13:59.112Z,23.10
2023-03-19T10:19:05.839Z,27.70
2023-03-19T10:24:16.649Z,20.63
2023-03-19T10:29:22.148Z,22.10
2023-03-19T10:34:32.778Z,25.17
2023-03-19T10:39:39.023Z,22.50
2023-03-19T10:44:52.250Z,22.10
2023-03-19T10:49:57.416Z,21.53
2023-03-19T10:55:14.610Z,20.50
2023-03-19T11:00:21.697Z,20.20
2023-03-19T11:05:29.347Z,23.93
2023-03-19T11:10:37.751Z,26.30
2023-03-19T11:15:41.051Z,24.63
2023-03-19T11:20:51.950Z,22.10
2023-03-19T11:26:01.750Z,27.23
2023-03-19T11:31:16.498Z,25.37
2023-03-19T11:36:24.878Z,24.80
2023-03-19T11:41:44.157Z,25.43
2023-03-19T11:46:56.288Z,23.67
2023-03-19T11:52:05.630Z,22.70
2023-03-19T11:57:19.484Z,19.87
2023-03-19T12:02:54.133Z,20.67
2023-03-19T12:08:10.481Z,20.90
2023-03-19T12:13:28.838Z,17.67
2023-03-19T12:18:52.219Z,19.53
2023-03-19T12:24:04.543Z,19.83
2023-03-19T12:29:19.716Z,19.67
2023-03-19T12:34:31.384Z,19.87
2023-03-19T12:39:39.872Z,19.67
2023-03-19T12:44:51.552Z,18.90
2023-03-19T12:49:58.625Z,21.10
2023-03-19T12:55:07.694Z,18.77
2023-03-19T13:00:21.823Z,15.83
2023-03-19T13:05:34.144Z,15.90
2023-03-19T13:10:37.877Z,14.83
2023-03-19T13:15:49.155Z,12.53
2023-03-19T13:21:03.475Z,11.47
2023-03-19T13:26:12.926Z,11.93
2023-03-19T13:31:23.083Z,10.97
2023-03-19T13:36:29.148Z,13.47
2023-03-19T13:41:59.516Z,11.87
2023-03-19T13:47:14.099Z,10.90
2023-03-19T13:52:58.193Z,10.93
2023-03-19T13:58:37.683Z,10.00
2023-03-19T14:03:56.284Z,9.83
2023-03-19T14:09:00.644Z,9.93
2023-03-19T14:14:06.621Z,8.87
2023-03-19T14:19:18.361Z,9.40
2023-03-19T14:30:00.822Z,11.63
2023-03-19T14:35:07.986Z,10.53
2023-03-19T14:40:14.576Z,12.80
2023-03-19T14:45:47.779Z,12.10
2023-03-19T14:51:17.917Z,11.23
2023-03-19T14:56:23.450Z,10.53
2023-03-19T15:01:28.907Z,7.40
2023-03-19T15:06:35.989Z,7.00
2023-03-19T15:12:01.146Z,6.77
2023-03-19T15:17:18.723Z,6.10
2023-03-19T15:22:28.973Z,7.07
2023-03-19T15:27:32.073Z,9.13
2023-03-19T15:33:09.213Z,8.17
2023-03-19T15:38:08.865Z,11.97
2023-03-19T15:43:14.133Z,11.20
2023-03-19T15:48:22.744Z,12.83
2023-03-19T15:53:31.529Z,9.37
2023-03-19T15:58:40.443Z,12.07
2023-03-19T16:03:46.297Z,8.80
2023-03-19T16:08:53.683Z,9.13
2023-03-19T16:13:59.344Z,7.33
2023-03-19T16:19:02.657Z,6.33
2023-03-19T16:24:21.220Z,9.33
2023-03-19T16:29:26.597Z,5.93
2023-03-19T16:34:41.269Z,6.27
2023-03-19T16:39:55.852Z,6.47
2023-03-19T16:44:59.007Z,6.47
2023-03-19T16:50:03.540Z,6.43
2023-03-19T16:55:20.075Z,7.77
2023-03-19T17:00:25.365Z,6.53
2023-03-19T17:05:30.084Z,6.00
2023-03-19T17:10:38.341Z,7.27
2023-03-19T17:15:43.477Z,8.83
2023-03-19T17:20:55.819Z,7.07
2023-03-19T17:26:00.719Z,11.07
2023-03-19T17:31:04.080Z,11.17
2023-03-19T17:36:10.813Z,7.60
2023-03-19T17:41:17.812Z,10.53
2023-03-19T17:46:23.890Z,7.20
2023-03-19T17:51:27.782Z,8.83
2023-03-19T17:56:32.327Z,7.83
2023-03-19T18:01:35.769Z,9.47
2023-03-19T18:06:44.393Z,11.17
2023-03-19T18:11:52.222Z,12.60
2023-03-19T18:16:55.765Z,11.67
2023-03-19T18:21:59.320Z,14.13
2023-03-19T18:27:06.718Z,11.73
2023-03-19T18:32:16.120Z,12.07
2023-03-19T18:37:19.948Z,17.13
2023-03-19T18:42:24.815Z,14.33
2023-03-19T18:47:28.668Z,14.10
2023-03-19T18:52:31.751Z,16.33
2023-03-19T18:57:38.968Z,21.80
2023-03-19T19:02:42.124Z,20.23
2023-03-19T19:07:45.812Z,28.10
2023-03-19T19:12:53.045Z,21.93
2023-03-19T19:17:56.400Z,25.70
2023-03-19T19:22:59.853Z,21.87
2023-03-19T19:28:09.736Z,16.63
2023-03-19T19:33:17.866Z,18.93
2023-03-19T19:38:21.123Z,17.73
2023-03-19T19:43:30.769Z,17.50
2023-03-19T19:48:34.306Z,22.37
2023-03-19T19:53:37.719Z,19.57
2023-03-19T19:58:43.098Z,19.07
2023-03-19T20:03:47.318Z,22.03
2023-03-19T20:08:51.536Z,20.17
2023-03-19T20:13:56.900Z,16.77
2023-03-19T20:19:00.247Z,16.03
2023-03-19T20:24:03.432Z,19.07
2023-03-19T20:29:08.108Z,14.37
2023-03-19T20:34:22.538Z,15.03
2023-03-19T20:39:28.623Z,12.73
2023-03-19T20:44:33.294Z,11.50
2023-03-19T20:49:37.083Z,10.53
2023-03-19T20:54:41.015Z,8.97
2023-03-19T20:59:47.084Z,9.90
2023-03-19T21:04:54.410Z,7.60
2023-03-19T21:09:58.143Z,7.70
2023-03-19T21:15:03.157Z,6.50
2023-03-19T21:20:07.991Z,7.83
2023-03-19T21:25:21.069Z,8.23
2023-03-19T21:30:27.778Z,7.27
2023-03-19T21:35:30.993Z,7.17
2023-03-19T21:40:34.353Z,7.73
2023-03-19T21:45:43.079Z,7.57
2023-03-19T21:50:46.150Z,8.37
2023-03-19T21:55:50.700Z,10.70
2023-03-19T22:00:55.301Z,13.47
2023-03-19T22:05:58.586Z,11.93
2023-03-19T22:11:03.041Z,12.63
2023-03-19T22:16:18.327Z,11.97
2023-03-19T22:21:23.492Z,12.17
2023-03-19T22:26:30.329Z,11.33
2023-03-19T22:31:36.003Z,14.93
2023-03-19T22:36:39.342Z,8.43
2023-03-19T22:41:45.780Z,15.93
2023-03-19T22:46:53.599Z,12.90
2023-03-19T22:51:57.834Z,12.73
2023-03-19T22:57:01.259Z,13.17
2023-03-19T23:02:06.005Z,13.23
2023-03-19T23:07:14.160Z,14.47
2023-03-19T23:12:17.258Z,12.63
2023-03-19T23:17:22.077Z,17.53
2023-03-19T23:22:25.847Z,11.90
2023-03-19T23:27:29.182Z,9.93
2023-03-19T23:32:34.504Z,12.87
2023-03-19T23:37:38.147Z,8.03
2023-03-19T23:42:45.673Z,13.23
2023-03-19T23:47:50.869Z,9.97
2023-03-19T23:52:54.613Z,8.13
2023-03-19T23:57:58.441Z,6.43
